Time;durP1;ratioP1;P1;durP2;ratioP2;P2;SDS_P1;SDS_P2;PMS_P1;PMS_P2;Temp;Humidity;BMP_temperature;BMP_pressure;BME280_temperature;BME280_humidity;BME280_pressure;Samples;Min_cycle;Max_cycle;Signal;HPM_P1;HPM_P2
2022/09/15 00:01:28;;;;;;;5.15;4.72;;;;;;;;;;4974499;28;20559;-63
2022/09/15 00:03:53;;;;;;;6.00;5.38;;;;;;;;;;4973951;28;20037;-63
2022/09/15 00:06:19;;;;;;;5.10;4.57;;;;;;;;;;4974724;28;20029;-63
2022/09/15 00:08:44;;;;;;;6.68;5.97;;;;;;;;;;4973529;28;20518;-63
2022/09/15 00:11:16;;;;;;;6.43;5.15;;;;;;;;;;4973195;28;20446;-63
2022/09/15 00:13:41;;;;;;;9.52;5.88;;;;;;;;;;4973389;28;20085;-62
2022/09/15 00:16:07;;;;;;;10.77;6.88;;;;;;;;;;4973715;28;20310;-63
2022/09/15 00:18:33;;;;;;;8.07;5.85;;;;;;;;;;4972298;28;20026;-62
2022/09/15 00:20:59;;;;;;;7.43;6.18;;;;;;;;;;4970334;28;20433;-62
2022/09/15 00:23:24;;;;;;;12.90;6.80;;;;;;;;;;4971378;28;20023;-62
2022/09/15 00:25:50;;;;;;;8.90;6.05;;;;;;;;;;4974131;28;20019;-62
2022/09/15 00:28:16;;;;;;;6.78;5.60;;;;;;;;;;4972690;28;20469;-62
2022/09/15 00:30:43;;;;;;;10.15;6.03;;;;;;;;;;4972994;28;20054;-63
2022/09/15 00:33:08;;;;;;;10.85;5.10;;;;;;;;;;4972992;28;20062;-63
2022/09/15 00:35:37;;;;;;;6.53;5.82;;;;;;;;;;4973315;28;20119;-62
2022/09/15 00:38:03;;;;;;;7.22;5.43;;;;;;;;;;4973479;28;20014;-62
2022/09/15 00:40:28;;;;;;;11.02;5.63;;;;;;;;;;4974752;28;20686;-62
2022/09/15 00:42:53;;;;;;;5.82;4.55;;;;;;;;;;4973047;28;20165;-62
2022/09/15 00:45:18;;;;;;;5.40;4.50;;;;;;;;;;4973955;28;20086;-63
2022/09/15 00:47:44;;;;;;;6.68;5.25;;;;;;;;;;4974330;28;20465;-62
2022/09/15 00:50:17;;;;;;;5.68;4.68;;;;;;;;;;4969141;28;20039;-62
2022/09/15 00:52:55;;;;;;;4.28;3.78;;;;;;;;;;4970832;28;20027;-62
2022/09/15 00:55:23;;;;;;;4.15;3.85;;;;;;;;;;4973066;28;20054;-62
2022/09/15 00:57:58;;;;;;;5.97;4.30;;;;;;;;;;4973785;28;20070;-62
2022/09/15 01:00:24;;;;;;;4.43;4.05;;;;;;;;;;4972927;28;20034;-62
2022/09/15 01:02:49;;;;;;;5.47;4.25;;;;;;;;;;4973783;28;20038;-62
2022/09/15 01:05:16;;;;;;;5.00;4.50;;;;;;;;;;4974065;28;20466;-62
2022/09/15 01:07:45;;;;;;;5.78;4.82;;;;;;;;;;4975994;28;20030;-63
2022/09/15 01:10:12;;;;;;;7.72;5.68;;;;;;;;;;4979352;28;20376;-62
2022/09/15 01:12:38;;;;;;;5.47;4.97;;;;;;;;;;4971969;28;20030;-62
2022/09/15 01:15:04;;;;;;;7.07;5.30;;;;;;;;;;4973148;28;20037;-62
2022/09/15 01:17:50;;;;;;;6.05;5.28;;;;;;;;;;4973428;28;20397;-62
2022/09/15 01:20:16;;;;;;;7.32;5.50;;;;;;;;;;4972461;28;20081;-62
2022/09/15 01:23:00;;;;;;;7.53;6.30;;;;;;;;;;4973366;28;20026;-62
2022/09/15 01:25:26;;;;;;;7.35;6.40;;;;;;;;;;4971876;28;20041;-62
2022/09/15 01:28:10;;;;;;;7.22;6.45;;;;;;;;;;4972848;28;20022;-62
2022/09/15 01:30:39;;;;;;;6.70;4.50;;;;;;;;;;4970963;28;20061;-62
2022/09/15 01:33:13;;;;;;;5.90;4.95;;;;;;;;;;4973857;28;20042;-62
2022/09/15 01:35:47;;;;;;;4.65;4.25;;;;;;;;;;4972478;28;20457;-62
2022/09/15 01:38:26;;;;;;;5.32;4.43;;;;;;;;;;4970720;28;20037;-63
2022/09/15 01:40:55;;;;;;;4.30;3.90;;;;;;;;;;4972095;28;20041;-62
2022/09/15 01:43:22;;;;;;;5.55;4.07;;;;;;;;;;4978371;28;20571;-62
2022/09/15 01:45:48;;;;;;;3.97;3.60;;;;;;;;;;4978972;28;20334;-62
2022/09/15 01:48:15;;;;;;;7.30;4.60;;;;;;;;;;4979259;28;20030;-62
2022/09/15 01:50:43;;;;;;;5.28;4.20;;;;;;;;;;4977356;28;20113;-62
2022/09/15 01:53:12;;;;;;;5.40;4.90;;;;;;;;;;4979480;28;20876;-63
2022/09/15 01:55:40;;;;;;;4.50;4.20;;;;;;;;;;4979285;28;20121;-62
2022/09/15 01:58:06;;;;;;;6.25;5.65;;;;;;;;;;4979264;28;20037;-62
2022/09/15 02:00:32;;;;;;;6.20;5.70;;;;;;;;;;4978624;28;20030;-62
2022/09/15 02:03:00;;;;;;;6.43;5.15;;;;;;;;;;4980047;28;20038;-62
2022/09/15 02:05:34;;;;;;;6.32;4.97;;;;;;;;;;4978437;28;20029;-62
2022/09/15 02:08:04;;;;;;;5.03;4.35;;;;;;;;;;4979560;28;20037;-62
2022/09/15 02:10:49;;;;;;;7.43;4.20;;;;;;;;;;4978703;28;20076;-62
2022/09/15 02:13:17;;;;;;;4.45;4.07;;;;;;;;;;4977971;28;20073;-62
2022/09/15 02:15:50;;;;;;;6.85;4.10;;;;;;;;;;4978238;28;20027;-62
2022/09/15 02:18:33;;;;;;;5.13;4.03;;;;;;;;;;4978343;28;20113;-62
2022/09/15 02:21:11;;;;;;;5.28;4.78;;;;;;;;;;4977929;28;20042;-61
2022/09/15 02:23:39;;;;;;;6.40;5.80;;;;;;;;;;4978266;28;20029;-65
2022/09/15 02:26:11;;;;;;;5.38;4.80;;;;;;;;;;4978776;28;20022;-64
2022/09/15 02:28:37;;;;;;;5.78;5.35;;;;;;;;;;4979717;28;20030;-64
2022/09/15 02:31:05;;;;;;;6.50;5.90;;;;;;;;;;4978538;28;20055;-64
2022/09/15 02:33:51;;;;;;;6.78;6.00;;;;;;;;;;4979001;28;20037;-65
2022/09/15 02:36:18;;;;;;;7.00;6.45;;;;;;;;;;4975661;28;20046;-65
2022/09/15 02:38:48;;;;;;;5.68;5.22;;;;;;;;;;4977243;28;20118;-65
2022/09/15 02:41:13;;;;;;;5.10;4.63;;;;;;;;;;4980519;28;20366;-65
2022/09/15 02:43:45;;;;;;;5.78;4.90;;;;;;;;;;4976909;28;20090;-66
2022/09/15 02:46:11;;;;;;;4.68;4.20;;;;;;;;;;4976945;28;20032;-66
2022/09/15 02:48:36;;;;;;;5.75;4.03;;;;;;;;;;4978619;28;20026;-66
2022/09/15 02:51:01;;;;;;;4.05;3.75;;;;;;;;;;4978253;28;20552;-66
2022/09/15 02:53:27;;;;;;;3.90;3.58;;;;;;;;;;4977036;28;20533;-66
2022/09/15 02:55:52;;;;;;;4.18;3.78;;;;;;;;;;4973935;28;20066;-67
2022/09/15 02:58:17;;;;;;;7.00;4.50;;;;;;;;;;4973747;28;20035;-65
2022/09/15 03:00:43;;;;;;;6.30;5.80;;;;;;;;;;4975719;28;20038;-66
2022/09/15 03:03:09;;;;;;;6.82;4.78;;;;;;;;;;4975333;28;20088;-66
2022/09/15 03:05:34;;;;;;;5.22;4.75;;;;;;;;;;4972866;28;20996;-65
2022/09/15 03:08:01;;;;;;;5.22;4.82;;;;;;;;;;4978263;28;20038;-65
2022/09/15 03:10:26;;;;;;;5.15;4.75;;;;;;;;;;4975398;28;20034;-65
2022/09/15 03:12:52;;;;;;;6.47;5.10;;;;;;;;;;4974732;28;20034;-65
2022/09/15 03:15:22;;;;;;;5.78;4.93;;;;;;;;;;4974911;28;20593;-65
2022/09/15 03:17:47;;;;;;;6.38;5.55;;;;;;;;;;4976165;28;20025;-65
2022/09/15 03:20:19;;;;;;;5.07;4.75;;;;;;;;;;4975171;28;20042;-64
2022/09/15 03:22:44;;;;;;;9.90;6.57;;;;;;;;;;4977077;28;20027;-66
2022/09/15 03:25:10;;;;;;;7.53;4.95;;;;;;;;;;4974378;28;20093;-66
2022/09/15 03:27:35;;;;;;;5.47;5.07;;;;;;;;;;4974959;28;20377;-65
2022/09/15 03:30:01;;;;;;;5.90;4.43;;;;;;;;;;4974629;28;20055;-61
2022/09/15 03:32:26;;;;;;;5.70;4.38;;;;;;;;;;4972487;28;20065;-64
2022/09/15 03:34:51;;;;;;;6.63;5.07;;;;;;;;;;4974394;28;20303;-63
2022/09/15 03:37:16;;;;;;;5.57;4.97;;;;;;;;;;4972933;28;20718;-65
2022/09/15 03:39:42;;;;;;;8.32;4.72;;;;;;;;;;4972825;28;20096;-64
2022/09/15 03:42:07;;;;;;;4.97;4.57;;;;;;;;;;4971751;28;20046;-63
2022/09/15 03:44:32;;;;;;;5.50;4.40;;;;;;;;;;4973005;28;20369;-63
2022/09/15 03:46:58;;;;;;;4.47;3.95;;;;;;;;;;4972110;28;20097;-63
2022/09/15 03:49:23;;;;;;;3.75;3.45;;;;;;;;;;4974158;28;20058;-63
2022/09/15 03:51:49;;;;;;;4.93;4.22;;;;;;;;;;4973227;28;20026;-63
2022/09/15 03:54:14;;;;;;;6.45;4.00;;;;;;;;;;4973567;28;20642;-64
2022/09/15 03:56:39;;;;;;;7.57;4.13;;;;;;;;;;4972912;28;20038;-64
2022/09/15 03:59:05;;;;;;;7.63;4.82;;;;;;;;;;4973160;28;20384;-64
2022/09/15 04:01:30;;;;;;;6.88;4.25;;;;;;;;;;4972999;28;20035;-64
2022/09/15 04:03:56;;;;;;;5.10;3.90;;;;;;;;;;4973967;28;20042;-63
2022/09/15 04:06:22;;;;;;;4.55;3.60;;;;;;;;;;4972947;28;20041;-63
2022/09/15 04:08:48;;;;;;;6.63;3.70;;;;;;;;;;4981732;28;20026;-64
2022/09/15 04:11:13;;;;;;;5.88;3.33;;;;;;;;;;4973355;28;20023;-63
2022/09/15 04:13:39;;;;;;;5.65;3.95;;;;;;;;;;4973425;28;20432;-63
2022/09/15 04:16:06;;;;;;;8.48;3.75;;;;;;;;;;4974431;28;20034;-63
2022/09/15 04:18:32;;;;;;;6.18;4.13;;;;;;;;;;4972710;28;20022;-63
2022/09/15 04:20:58;;;;;;;4.82;3.47;;;;;;;;;;4973296;28;20047;-63
2022/09/15 04:23:23;;;;;;;4.63;4.18;;;;;;;;;;4974132;28;20031;-63
2022/09/15 04:25:59;;;;;;;4.72;3.92;;;;;;;;;;4974360;28;20027;-63
2022/09/15 04:28:25;;;;;;;4.15;3.72;;;;;;;;;;4974800;28;20197;-63
2022/09/15 04:30:50;;;;;;;4.22;3.78;;;;;;;;;;4972807;28;20058;-62
2022/09/15 04:33:15;;;;;;;7.88;3.55;;;;;;;;;;4974589;28;20030;-64
2022/09/15 04:35:40;;;;;;;4.82;4.22;;;;;;;;;;4973653;28;20046;-63
2022/09/15 04:38:06;;;;;;;4.38;3.35;;;;;;;;;;4972659;28;20418;-64
2022/09/15 04:40:31;;;;;;;4.10;3.70;;;;;;;;;;4972859;28;20043;-61
2022/09/15 04:42:56;;;;;;;9.00;4.32;;;;;;;;;;4971759;28;20023;-64
2022/09/15 04:45:21;;;;;;;4.47;3.50;;;;;;;;;;4973272;28;20065;-64
2022/09/15 04:47:47;;;;;;;5.45;3.17;;;;;;;;;;4974139;28;20221;-62
2022/09/15 04:50:12;;;;;;;4.70;3.92;;;;;;;;;;4972723;28;20030;-63
2022/09/15 04:52:38;;;;;;;3.88;3.25;;;;;;;;;;4972602;28;20066;-64
2022/09/15 04:55:03;;;;;;;3.47;3.17;;;;;;;;;;4973558;28;20046;-63
2022/09/15 04:57:28;;;;;;;4.45;3.00;;;;;;;;;;4972594;28;20121;-63
2022/09/15 04:59:54;;;;;;;4.47;3.17;;;;;;;;;;4973750;28;20064;-62
2022/09/15 05:02:19;;;;;;;4.10;3.55;;;;;;;;;;4973661;28;20031;-62
2022/09/15 05:04:46;;;;;;;3.63;2.80;;;;;;;;;;4973845;28;20038;-61
2022/09/15 05:07:11;;;;;;;5.47;3.65;;;;;;;;;;4972934;28;20077;-61
2022/09/15 05:09:37;;;;;;;7.28;4.28;;;;;;;;;;4982018;28;20038;-61
2022/09/15 05:12:02;;;;;;;5.57;4.60;;;;;;;;;;4975981;28;20035;-61
2022/09/15 05:14:28;;;;;;;5.45;4.10;;;;;;;;;;4973612;28;20039;-63
2022/09/15 05:16:54;;;;;;;5.25;4.80;;;;;;;;;;4972874;28;20556;-60
2022/09/15 05:19:19;;;;;;;6.35;4.68;;;;;;;;;;4973870;28;20046;-61
2022/09/15 05:21:44;;;;;;;4.28;3.90;;;;;;;;;;4976734;28;20596;-60
2022/09/15 05:24:09;;;;;;;4.70;4.18;;;;;;;;;;4973024;28;20035;-64
2022/09/15 05:26:35;;;;;;;7.38;4.93;;;;;;;;;;4974836;28;20038;-62
2022/09/15 05:29:00;;;;;;;6.55;4.85;;;;;;;;;;4972905;28;20034;-63
2022/09/15 05:31:29;;;;;;;13.32;5.30;;;;;;;;;;4972935;28;20129;-62
2022/09/15 05:33:55;;;;;;;6.72;5.35;;;;;;;;;;4973026;28;20820;-62
2022/09/15 05:36:23;;;;;;;5.88;4.95;;;;;;;;;;4974342;28;20027;-66
2022/09/15 05:38:49;;;;;;;7.53;5.50;;;;;;;;;;4978552;28;20884;-64
2022/09/15 05:41:16;;;;;;;6.05;5.55;;;;;;;;;;4974305;28;20023;-61
2022/09/15 05:43:42;;;;;;;10.13;7.20;;;;;;;;;;4971418;28;20035;-61
2022/09/15 05:46:08;;;;;;;20.27;11.32;;;;;;;;;;4972283;28;20101;-62
2022/09/15 05:48:33;;;;;;;21.23;10.55;;;;;;;;;;4972187;28;20110;-62
2022/09/15 05:50:59;;;;;;;13.57;8.13;;;;;;;;;;4972906;28;20069;-61
2022/09/15 05:53:24;;;;;;;8.77;6.65;;;;;;;;;;4968784;28;20019;-62
2022/09/15 05:55:53;;;;;;;5.85;5.25;;;;;;;;;;4968460;28;20042;-64
2022/09/15 05:58:18;;;;;;;10.95;6.05;;;;;;;;;;4972060;28;20027;-64
2022/09/15 06:00:43;;;;;;;4.88;3.35;;;;;;;;;;4973118;28;20062;-64
2022/09/15 06:03:12;;;;;;;5.80;3.70;;;;;;;;;;4973955;28;20035;-63
2022/09/15 06:05:37;;;;;;;5.50;3.17;;;;;;;;;;4972848;28;20122;-60
2022/09/15 06:08:03;;;;;;;4.22;3.25;;;;;;;;;;4972624;28;20033;-59
2022/09/15 06:10:28;;;;;;;4.07;3.45;;;;;;;;;;4973233;28;20030;-63
2022/09/15 06:12:55;;;;;;;3.03;2.72;;;;;;;;;;4973214;28;20385;-63
2022/09/15 06:15:21;;;;;;;2.97;2.60;;;;;;;;;;4972051;28;20074;-63
2022/09/15 06:17:46;;;;;;;3.90;2.63;;;;;;;;;;4972164;28;20031;-63
2022/09/15 06:20:12;;;;;;;5.70;3.15;;;;;;;;;;4972405;28;20034;-63
2022/09/15 06:22:37;;;;;;;4.07;2.95;;;;;;;;;;4972040;28;20039;-63
2022/09/15 06:25:03;;;;;;;3.17;2.40;;;;;;;;;;4971750;28;20029;-63
2022/09/15 06:27:28;;;;;;;6.93;2.85;;;;;;;;;;4968504;28;20317;-64
2022/09/15 06:29:53;;;;;;;6.00;3.00;;;;;;;;;;4973553;28;20135;-63
2022/09/15 06:32:18;;;;;;;6.75;3.28;;;;;;;;;;4971345;28;20181;-63
2022/09/15 06:34:44;;;;;;;7.97;2.78;;;;;;;;;;4973646;28;20058;-65
2022/09/15 06:37:10;;;;;;;2.65;2.45;;;;;;;;;;4976151;28;20532;-66
2022/09/15 06:39:35;;;;;;;6.28;2.42;;;;;;;;;;4975471;28;20035;-66
2022/09/15 06:42:00;;;;;;;2.42;2.22;;;;;;;;;;4973450;28;20495;-64
2022/09/15 06:44:25;;;;;;;3.08;2.60;;;;;;;;;;4971783;28;20548;-66
2022/09/15 06:46:51;;;;;;;2.90;2.30;;;;;;;;;;4975390;28;20538;-66
2022/09/15 06:49:16;;;;;;;7.88;3.10;;;;;;;;;;4976395;28;20034;-67
2022/09/15 06:51:41;;;;;;;4.20;2.83;;;;;;;;;;4976529;28;20027;-66
2022/09/15 06:54:06;;;;;;;7.13;2.90;;;;;;;;;;4974534;28;20217;-65
2022/09/15 06:56:32;;;;;;;5.00;2.70;;;;;;;;;;4979089;28;20090;-66
2022/09/15 06:58:58;;;;;;;5.57;2.50;;;;;;;;;;4973816;28;20037;-65
2022/09/15 07:01:24;;;;;;;8.48;2.30;;;;;;;;;;4975230;28;20018;-66
2022/09/15 07:03:50;;;;;;;3.30;2.38;;;;;;;;;;4975824;28;20038;-66
2022/09/15 07:06:15;;;;;;;6.45;2.65;;;;;;;;;;4973240;28;20556;-68
2022/09/15 07:08:41;;;;;;;7.47;2.70;;;;;;;;;;4975190;28;20105;-67
2022/09/15 07:11:07;;;;;;;4.75;2.35;;;;;;;;;;4975600;28;20031;-67
2022/09/15 07:13:32;;;;;;;4.20;2.42;;;;;;;;;;4975100;28;20042;-67
2022/09/15 07:15:59;;;;;;;3.20;2.13;;;;;;;;;;4975614;28;20042;-68
2022/09/15 07:18:24;;;;;;;5.60;3.20;;;;;;;;;;4975389;28;20085;-67
2022/09/15 07:20:50;;;;;;;4.30;2.83;;;;;;;;;;4973954;28;20494;-67
2022/09/15 07:23:15;;;;;;;3.95;2.47;;;;;;;;;;4974083;28;20030;-66
2022/09/15 07:25:43;;;;;;;3.75;3.03;;;;;;;;;;4974158;28;20039;-67
2022/09/15 07:28:12;;;;;;;7.55;3.92;;;;;;;;;;4977356;28;20088;-67
2022/09/15 07:30:39;;;;;;;4.65;3.33;;;;;;;;;;4974960;28;20140;-65
2022/09/15 07:33:05;;;;;;;8.30;3.40;;;;;;;;;;4974326;28;20133;-65
2022/09/15 07:35:30;;;;;;;7.45;3.03;;;;;;;;;;4974961;28;20049;-66
2022/09/15 07:37:55;;;;;;;5.15;2.65;;;;;;;;;;4975108;28;20442;-66
2022/09/15 07:40:20;;;;;;;5.95;3.13;;;;;;;;;;4974286;28;20046;-65
2022/09/15 07:42:46;;;;;;;5.80;2.42;;;;;;;;;;4979182;28;20023;-66
2022/09/15 07:45:11;;;;;;;7.07;3.50;;;;;;;;;;4973910;28;20549;-65
2022/09/15 07:47:36;;;;;;;2.88;2.45;;;;;;;;;;4974709;28;20699;-65
2022/09/15 07:50:02;;;;;;;2.95;2.58;;;;;;;;;;4975318;28;20162;-65
2022/09/15 07:52:27;;;;;;;3.55;2.67;;;;;;;;;;4974393;28;20113;-65
2022/09/15 07:54:52;;;;;;;4.22;3.05;;;;;;;;;;4976072;28;20500;-64
2022/09/15 07:57:18;;;;;;;3.47;3.25;;;;;;;;;;4972861;28;20450;-64
2022/09/15 07:59:43;;;;;;;8.00;6.05;;;;;;;;;;4970076;28;20053;-64
2022/09/15 08:02:19;;;;;;;5.10;3.72;;;;;;;;;;4972998;28;20038;-59
2022/09/15 08:04:45;;;;;;;7.25;3.42;;;;;;;;;;4974938;28;20042;-65
2022/09/15 08:07:11;;;;;;;3.92;3.58;;;;;;;;;;4973828;28;20030;-65
2022/09/15 08:09:36;;;;;;;3.83;3.50;;;;;;;;;;4974242;28;20464;-66
2022/09/15 08:12:02;;;;;;;3.63;3.33;;;;;;;;;;4975584;28;20041;-64
2022/09/15 08:14:30;;;;;;;7.05;3.63;;;;;;;;;;4974890;28;20033;-65
2022/09/15 08:16:56;;;;;;;7.05;3.83;;;;;;;;;;4973737;28;20556;-65
2022/09/15 08:19:22;;;;;;;7.82;4.47;;;;;;;;;;4974587;28;20031;-64
2022/09/15 08:21:47;;;;;;;4.18;2.72;;;;;;;;;;4973337;28;20389;-65
2022/09/15 08:24:12;;;;;;;4.72;3.15;;;;;;;;;;4973622;28;20685;-68
2022/09/15 08:26:37;;;;;;;4.97;2.92;;;;;;;;;;4975375;28;20034;-68
2022/09/15 08:29:03;;;;;;;5.50;3.55;;;;;;;;;;4974527;28;20050;-68
2022/09/15 08:31:28;;;;;;;6.05;3.40;;;;;;;;;;4968353;28;20584;-68
2022/09/15 08:33:54;;;;;;;3.75;2.92;;;;;;;;;;4970229;28;20489;-68
2022/09/15 08:36:20;;;;;;;8.20;3.30;;;;;;;;;;4969973;28;20026;-68
2022/09/15 08:38:45;;;;;;;3.47;3.22;;;;;;;;;;4969700;28;20041;-68
2022/09/15 08:41:17;;;;;;;4.65;3.10;;;;;;;;;;4972751;28;20039;-63
2022/09/15 08:43:51;;;;;;;7.93;6.90;;;;;;;;;;4971150;28;20096;-63
2022/09/15 08:46:19;;;;;;;8.15;6.70;;;;;;;;;;4969550;28;20035;-64
2022/09/15 08:48:47;;;;;;;11.95;7.88;;;;;;;;;;4973735;28;20039;-63
2022/09/15 08:51:18;;;;;;;12.10;7.80;;;;;;;;;;4973084;28;20031;-63
2022/09/15 08:53:50;;;;;;;15.85;8.48;;;;;;;;;;4969576;28;20022;-63
2022/09/15 08:56:16;;;;;;;7.03;5.78;;;;;;;;;;4970933;28;20576;-64
2022/09/15 08:58:42;;;;;;;5.10;4.63;;;;;;;;;;4969620;28;20391;-63
2022/09/15 09:01:07;;;;;;;6.10;3.60;;;;;;;;;;4969661;28;20080;-65
2022/09/15 09:03:51;;;;;;;4.30;3.90;;;;;;;;;;4972747;28;20038;-65
2022/09/15 09:06:26;;;;;;;6.23;3.83;;;;;;;;;;4973769;28;20022;-65
2022/09/15 09:09:02;;;;;;;6.50;3.50;;;;;;;;;;4973339;28;20389;-65
2022/09/15 09:11:35;;;;;;;4.95;3.42;;;;;;;;;;4972769;28;20036;-65
2022/09/15 09:14:33;;;;;;;4.82;3.58;;;;;;;;;;4969861;28;20088;-65
2022/09/15 09:17:27;;;;;;;4.43;4.03;;;;;;;;;;4977002;28;20044;-65
2022/09/15 09:20:32;;;;;;;8.27;4.63;;;;;;;;;;4962301;28;20687;-66
2022/09/15 09:22:58;;;;;;;3.45;3.15;;;;;;;;;;4942350;29;20042;-65
2022/09/15 09:25:25;;;;;;;8.15;5.65;;;;;;;;;;4938594;29;20023;-65
2022/09/15 09:27:51;;;;;;;5.07;4.03;;;;;;;;;;4938183;29;20134;-65
2022/09/15 09:30:16;;;;;;;7.13;4.53;;;;;;;;;;4938088;29;20094;-66
2022/09/15 09:33:00;;;;;;;8.85;4.70;;;;;;;;;;4938330;29;20603;-66
2022/09/15 09:35:26;;;;;;;5.28;4.25;;;;;;;;;;4938035;29;20047;-68
2022/09/15 09:37:51;;;;;;;6.57;4.53;;;;;;;;;;4939540;29;20110;-66
2022/09/15 09:40:17;;;;;;;3.78;3.47;;;;;;;;;;4941591;29;20526;-66
2022/09/15 09:42:42;;;;;;;5.38;4.88;;;;;;;;;;4939144;29;20629;-66
2022/09/15 09:45:11;;;;;;;5.03;4.53;;;;;;;;;;4938022;29;20064;-70
2022/09/15 09:47:38;;;;;;;4.60;4.20;;;;;;;;;;4942658;29;20043;-66
2022/09/15 09:50:05;;;;;;;7.40;4.25;;;;;;;;;;4942055;29;20055;-70
2022/09/15 09:52:34;;;;;;;8.27;3.38;;;;;;;;;;4941794;29;20423;-67
2022/09/15 09:55:19;;;;;;;4.15;3.10;;;;;;;;;;4961401;28;20035;-69
2022/09/15 09:57:44;;;;;;;8.00;3.55;;;;;;;;;;4966120;28;20042;-68
2022/09/15 10:00:32;;;;;;;6.85;3.55;;;;;;;;;;4970740;28;20608;-67
2022/09/15 10:03:07;;;;;;;5.00;3.35;;;;;;;;;;4975856;28;20050;-67
2022/09/15 10:05:33;;;;;;;4.07;3.33;;;;;;;;;;4975777;28;20601;-67
2022/09/15 10:08:01;;;;;;;5.18;3.55;;;;;;;;;;4976655;28;20030;-67
2022/09/15 10:10:31;;;;;;;3.55;2.90;;;;;;;;;;4976050;28;20106;-68
2022/09/15 10:12:56;;;;;;;3.47;3.17;;;;;;;;;;4976964;28;20038;-69
2022/09/15 10:15:26;;;;;;;5.15;3.80;;;;;;;;;;4978043;28;20350;-66
2022/09/15 10:17:53;;;;;;;4.03;3.15;;;;;;;;;;4976575;28;20385;-68
2022/09/15 10:20:24;;;;;;;3.65;2.67;;;;;;;;;;4974750;28;20128;-67
2022/09/15 10:22:49;;;;;;;4.13;3.28;;;;;;;;;;4972648;28;20026;-65
2022/09/15 10:25:18;;;;;;;3.65;3.20;;;;;;;;;;4975250;28;20436;-66
2022/09/15 10:27:43;;;;;;;3.63;3.25;;;;;;;;;;4975129;28;20077;-66
2022/09/15 10:30:11;;;;;;;3.60;3.08;;;;;;;;;;4975894;28;20058;-67
2022/09/15 10:32:36;;;;;;;3.67;2.55;;;;;;;;;;4977516;28;20026;-67
2022/09/15 10:35:08;;;;;;;7.25;2.55;;;;;;;;;;4971774;28;20758;-67
2022/09/15 10:37:52;;;;;;;3.85;3.25;;;;;;;;;;4973577;28;20037;-67
2022/09/15 10:40:33;;;;;;;3.80;3.45;;;;;;;;;;4975053;28;20066;-67
2022/09/15 10:42:58;;;;;;;2.78;2.58;;;;;;;;;;4976606;28;20165;-67
2022/09/15 10:45:34;;;;;;;3.40;3.10;;;;;;;;;;4975383;28;20034;-68
2022/09/15 10:48:08;;;;;;;5.70;4.18;;;;;;;;;;4975560;28;20069;-67
2022/09/15 10:50:44;;;;;;;5.10;4.05;;;;;;;;;;4976332;28;20033;-68
2022/09/15 10:53:36;;;;;;;6.43;4.50;;;;;;;;;;4976094;28;20022;-70
2022/09/15 10:56:01;;;;;;;3.50;3.05;;;;;;;;;;4973790;28;20045;-68
2022/09/15 10:58:29;;;;;;;3.35;3.03;;;;;;;;;;4976134;28;20031;-68
2022/09/15 11:00:55;;;;;;;3.58;3.25;;;;;;;;;;4976171;28;20045;-67
2022/09/15 11:03:20;;;;;;;3.63;2.92;;;;;;;;;;4975646;28;20042;-66
2022/09/15 11:05:45;;;;;;;4.63;3.28;;;;;;;;;;4975524;28;20286;-67
2022/09/15 11:08:19;;;;;;;3.20;2.92;;;;;;;;;;4975031;28;20031;-62
2022/09/15 11:10:55;;;;;;;2.90;2.70;;;;;;;;;;4974695;28;20374;-67
2022/09/15 11:13:20;;;;;;;3.25;2.90;;;;;;;;;;4975262;28;20129;-66
2022/09/15 11:15:45;;;;;;;4.60;3.55;;;;;;;;;;4973345;28;20022;-66
2022/09/15 11:18:11;;;;;;;4.00;3.55;;;;;;;;;;4973467;28;20033;-68
2022/09/15 11:20:46;;;;;;;3.60;3.15;;;;;;;;;;4974359;28;20038;-67
2022/09/15 11:23:22;;;;;;;3.08;2.85;;;;;;;;;;4975102;28;20057;-65
2022/09/15 11:25:53;;;;;;;3.30;3.10;;;;;;;;;;4975888;28;20027;-66
2022/09/15 11:28:21;;;;;;;4.45;3.78;;;;;;;;;;4975343;28;20058;-66
2022/09/15 11:30:52;;;;;;;5.20;3.45;;;;;;;;;;4975034;28;20085;-67
2022/09/15 11:33:24;;;;;;;3.70;3.30;;;;;;;;;;4974321;28;20038;-68
2022/09/15 11:35:55;;;;;;;3.13;2.83;;;;;;;;;;4973749;28;20551;-66
2022/09/15 11:38:33;;;;;;;3.17;2.97;;;;;;;;;;4974762;28;20034;-67
2022/09/15 11:41:06;;;;;;;4.63;3.42;;;;;;;;;;4975304;28;20049;-68
2022/09/15 11:43:33;;;;;;;4.25;2.60;;;;;;;;;;4975049;28;20089;-67
2022/09/15 11:46:00;;;;;;;6.30;3.25;;;;;;;;;;4974120;28;20120;-68
2022/09/15 11:48:28;;;;;;;4.45;3.33;;;;;;;;;;4975880;28;20026;-68
2022/09/15 11:50:55;;;;;;;6.10;2.95;;;;;;;;;;4977845;28;20027;-68
2022/09/15 11:53:26;;;;;;;6.00;3.45;;;;;;;;;;4975686;28;20023;-66
2022/09/15 11:55:54;;;;;;;4.72;3.10;;;;;;;;;;4973460;28;20125;-67
2022/09/15 11:58:32;;;;;;;4.00;3.33;;;;;;;;;;4969755;28;20536;-67
2022/09/15 12:01:03;;;;;;;11.68;4.68;;;;;;;;;;4972368;28;20038;-67
2022/09/15 12:03:34;;;;;;;4.35;3.30;;;;;;;;;;4975100;28;20069;-68
2022/09/15 12:06:02;;;;;;;5.80;3.13;;;;;;;;;;4970627;28;20092;-68
2022/09/15 12:08:32;;;;;;;4.07;2.95;;;;;;;;;;4970054;28;20022;-67
2022/09/15 12:11:00;;;;;;;6.45;4.47;;;;;;;;;;4969706;28;20453;-68
2022/09/15 12:13:25;;;;;;;4.68;3.03;;;;;;;;;;4970353;28;20094;-65
2022/09/15 12:15:51;;;;;;;3.58;3.33;;;;;;;;;;4972822;28;20039;-64
2022/09/15 12:18:35;;;;;;;3.45;3.25;;;;;;;;;;4974919;28;20298;-64
2022/09/15 12:21:06;;;;;;;5.35;3.13;;;;;;;;;;4973941;28;20030;-64
2022/09/15 12:23:33;;;;;;;2.83;2.53;;;;;;;;;;4972996;28;20054;-64
2022/09/15 12:25:58;;;;;;;4.72;3.40;;;;;;;;;;4973021;28;20031;-65
2022/09/15 12:28:25;;;;;;;4.38;2.85;;;;;;;;;;4973453;28;20042;-64
2022/09/15 12:31:09;;;;;;;5.47;3.58;;;;;;;;;;4973841;28;20047;-64
2022/09/15 12:33:53;;;;;;;3.20;2.97;;;;;;;;;;4971750;28;20134;-65
2022/09/15 12:36:28;;;;;;;3.20;2.90;;;;;;;;;;4972392;28;20030;-64
2022/09/15 12:38:53;;;;;;;6.68;3.65;;;;;;;;;;4975919;28;20030;-63
2022/09/15 12:41:18;;;;;;;3.42;3.13;;;;;;;;;;4975268;28;20040;-65
2022/09/15 12:43:54;;;;;;;3.58;2.83;;;;;;;;;;4981887;28;20495;-64
2022/09/15 12:46:20;;;;;;;2.95;2.85;;;;;;;;;;4974223;28;20030;-65
2022/09/15 12:48:46;;;;;;;3.95;3.55;;;;;;;;;;4974474;28;20465;-70
2022/09/15 12:51:20;;;;;;;2.70;2.60;;;;;;;;;;4973969;28;20065;-64
2022/09/15 12:53:49;;;;;;;3.63;2.70;;;;;;;;;;4974602;28;20476;-65
2022/09/15 12:56:40;;;;;;;4.07;2.95;;;;;;;;;;4973337;28;20146;-67
2022/09/15 12:59:06;;;;;;;3.22;2.78;;;;;;;;;;4973665;28;20042;-67
2022/09/15 13:01:44;;;;;;;3.10;2.90;;;;;;;;;;4972230;28;20389;-66
2022/09/15 13:04:23;;;;;;;5.45;3.55;;;;;;;;;;4973786;28;20034;-67
2022/09/15 13:07:07;;;;;;;3.50;3.22;;;;;;;;;;4968925;28;20037;-66
2022/09/15 13:09:41;;;;;;;4.32;3.75;;;;;;;;;;4972232;28;20109;-66
2022/09/15 13:12:07;;;;;;;5.18;3.13;;;;;;;;;;4973615;28;20112;-65
2022/09/15 13:14:34;;;;;;;3.83;3.63;;;;;;;;;;4973735;28;20038;-67
2022/09/15 13:17:05;;;;;;;3.42;3.22;;;;;;;;;;4973871;28;20141;-67
2022/09/15 13:19:40;;;;;;;3.53;3.20;;;;;;;;;;4973318;28;20590;-66
2022/09/15 13:22:11;;;;;;;2.97;2.78;;;;;;;;;;4972792;28;20525;-66
2022/09/15 13:24:54;;;;;;;2.75;2.55;;;;;;;;;;4973701;28;20026;-66
2022/09/15 13:27:32;;;;;;;3.00;2.40;;;;;;;;;;4972788;28;20029;-67
2022/09/15 13:30:01;;;;;;;2.92;2.70;;;;;;;;;;4972984;28;20404;-66
2022/09/15 13:32:26;;;;;;;3.80;2.90;;;;;;;;;;4973542;28;20108;-67
2022/09/15 13:34:55;;;;;;;3.05;2.80;;;;;;;;;;4972951;28;20030;-65
2022/09/15 13:37:39;;;;;;;4.32;3.63;;;;;;;;;;4971481;28;20026;-67
2022/09/15 13:40:04;;;;;;;3.38;3.08;;;;;;;;;;4973141;28;20522;-67
2022/09/15 13:42:38;;;;;;;2.90;2.70;;;;;;;;;;4972355;28;20470;-67
2022/09/15 13:45:20;;;;;;;3.03;2.83;;;;;;;;;;4974049;28;20026;-66
2022/09/15 13:47:46;;;;;;;4.07;3.10;;;;;;;;;;4970886;28;20100;-67
2022/09/15 13:50:14;;;;;;;4.63;2.95;;;;;;;;;;4972795;28;20034;-64
2022/09/15 13:52:50;;;;;;;3.65;3.13;;;;;;;;;;4971858;28;20172;-64
2022/09/15 13:55:19;;;;;;;3.33;2.60;;;;;;;;;;4972555;28;20058;-64
2022/09/15 13:57:50;;;;;;;3.78;3.45;;;;;;;;;;4971673;28;20092;-65
2022/09/15 14:00:23;;;;;;;3.78;3.00;;;;;;;;;;4974442;28;20035;-64
2022/09/15 14:02:50;;;;;;;3.00;2.80;;;;;;;;;;4971156;28;20074;-63
2022/09/15 14:05:16;;;;;;;2.80;2.63;;;;;;;;;;4968253;28;20049;-67
2022/09/15 14:07:42;;;;;;;2.95;2.75;;;;;;;;;;4970965;28;20469;-66
2022/09/15 14:10:17;;;;;;;3.05;2.75;;;;;;;;;;4974204;28;20030;-66
2022/09/15 14:12:42;;;;;;;3.38;2.50;;;;;;;;;;4971548;28;20065;-66
2022/09/15 14:15:08;;;;;;;3.20;2.70;;;;;;;;;;4971828;28;20122;-67
2022/09/15 14:17:42;;;;;;;3.08;2.88;;;;;;;;;;4972172;28;20022;-67
2022/09/15 14:20:18;;;;;;;2.53;2.28;;;;;;;;;;4972801;28;20042;-67
2022/09/15 14:22:47;;;;;;;3.03;2.85;;;;;;;;;;4971733;28;20098;-66
2022/09/15 14:25:15;;;;;;;4.07;2.88;;;;;;;;;;4972350;28;20485;-60
2022/09/15 14:27:43;;;;;;;2.75;2.63;;;;;;;;;;4970550;28;20505;-66
2022/09/15 14:30:15;;;;;;;3.10;2.30;;;;;;;;;;4967497;28;20051;-67
2022/09/15 14:32:43;;;;;;;3.15;2.60;;;;;;;;;;4970193;28;20084;-68
2022/09/15 14:35:12;;;;;;;3.80;2.75;;;;;;;;;;4973055;28;20540;-68
2022/09/15 14:37:37;;;;;;;2.30;2.10;;;;;;;;;;4972808;28;20030;-70
2022/09/15 14:40:17;;;;;;;2.47;2.30;;;;;;;;;;4971778;28;20420;-68
2022/09/15 14:42:42;;;;;;;2.45;2.25;;;;;;;;;;4972011;28;20503;-69
2022/09/15 14:45:13;;;;;;;2.58;2.45;;;;;;;;;;4974755;28;20035;-68
2022/09/15 14:47:39;;;;;;;3.00;2.13;;;;;;;;;;4972156;28;20549;-67
2022/09/15 14:50:12;;;;;;;4.32;2.95;;;;;;;;;;4971140;28;20031;-66
2022/09/15 14:52:39;;;;;;;2.30;2.10;;;;;;;;;;4974544;28;20034;-64